sensor_id;sensor_type;location;lat;lon;timestamp;temperature;humidity
78541;SHT31;67835;51.968;5.646;2023-07-31T00:00:24;17.6;79.7
78541;SHT31;67835;51.968;5.646;2023-07-31T00:02:53;17.6;79.6
78541;SHT31;67835;51.968;5.646;2023-07-31T00:05:23;17.6;79.6
78541;SHT31;67835;51.968;5.646;2023-07-31T00:07:51;17.6;79.6
78541;SHT31;67835;51.968;5.646;2023-07-31T00:10:20;17.7;79.5
78541;SHT31;67835;51.968;5.646;2023-07-31T00:12:49;17.7;79.5
78541;SHT31;67835;51.968;5.646;2023-07-31T00:15:18;17.7;79.6
78541;SHT31;67835;51.968;5.646;2023-07-31T00:17:48;17.7;79.7
78541;SHT31;67835;51.968;5.646;2023-07-31T00:20:17;17.8;79.9
78541;SHT31;67835;51.968;5.646;2023-07-31T00:22:46;17.8;79.9
78541;SHT31;67835;51.968;5.646;2023-07-31T00:25:14;17.8;80.1
78541;SHT31;67835;51.968;5.646;2023-07-31T00:27:44;17.9;80.2
78541;SHT31;67835;51.968;5.646;2023-07-31T00:30:13;17.9;80.4
78541;SHT31;67835;51.968;5.646;2023-07-31T00:32:42;17.9;80.6
78541;SHT31;67835;51.968;5.646;2023-07-31T00:35:11;17.9;80.8
78541;SHT31;67835;51.968;5.646;2023-07-31T00:37:40;18.0;81.0
78541;SHT31;67835;51.968;5.646;2023-07-31T00:40:09;18.0;81.3
78541;SHT31;67835;51.968;5.646;2023-07-31T00:42:42;18.0;81.6
78541;SHT31;67835;51.968;5.646;2023-07-31T00:45:11;18.1;81.7
78541;SHT31;67835;51.968;5.646;2023-07-31T00:47:39;18.1;81.8
78541;SHT31;67835;51.968;5.646;2023-07-31T00:50:09;18.2;82.0
78541;SHT31;67835;51.968;5.646;2023-07-31T00:52:38;18.3;81.8
78541;SHT31;67835;51.968;5.646;2023-07-31T00:55:08;18.3;81.7
78541;SHT31;67835;51.968;5.646;2023-07-31T00:57:39;18.4;81.3
78541;SHT31;67835;51.968;5.646;2023-07-31T01:00:10;18.4;80.9
78541;SHT31;67835;51.968;5.646;2023-07-31T01:02:41;18.5;80.7
78541;SHT31;67835;51.968;5.646;2023-07-31T01:05:10;18.5;80.5
78541;SHT31;67835;51.968;5.646;2023-07-31T01:07:45;18.6;80.3
78541;SHT31;67835;51.968;5.646;2023-07-31T01:10:21;18.6;80.0
78541;SHT31;67835;51.968;5.646;2023-07-31T01:12:53;18.7;79.9
78541;SHT31;67835;51.968;5.646;2023-07-31T01:15:22;18.7;79.7
78541;SHT31;67835;51.968;5.646;2023-07-31T01:17:50;18.7;79.2
78541;SHT31;67835;51.968;5.646;2023-07-31T01:20:22;18.8;79.2
78541;SHT31;67835;51.968;5.646;2023-07-31T01:23:26;18.8;78.8
78541;SHT31;67835;51.968;5.646;2023-07-31T01:26:12;18.9;78.4
78541;SHT31;67835;51.968;5.646;2023-07-31T01:28:53;18.9;77.9
78541;SHT31;67835;51.968;5.646;2023-07-31T01:31:26;18.9;77.6
78541;SHT31;67835;51.968;5.646;2023-07-31T01:34:00;19.0;77.6
78541;SHT31;67835;51.968;5.646;2023-07-31T01:36:30;19.0;77.5
78541;SHT31;67835;51.968;5.646;2023-07-31T01:39:01;19.0;77.3
78541;SHT31;67835;51.968;5.646;2023-07-31T01:41:30;19.0;77.0
78541;SHT31;67835;51.968;5.646;2023-07-31T01:43:59;19.1;76.6
78541;SHT31;67835;51.968;5.646;2023-07-31T01:46:27;19.1;76.7
78541;SHT31;67835;51.968;5.646;2023-07-31T01:48:56;19.1;76.4
78541;SHT31;67835;51.968;5.646;2023-07-31T01:51:24;19.1;76.2
78541;SHT31;67835;51.968;5.646;2023-07-31T01:53:56;19.1;76.2
78541;SHT31;67835;51.968;5.646;2023-07-31T01:56:26;19.2;76.2
78541;SHT31;67835;51.968;5.646;2023-07-31T01:58:55;19.2;76.0
78541;SHT31;67835;51.968;5.646;2023-07-31T02:01:24;19.2;76.2
78541;SHT31;67835;51.968;5.646;2023-07-31T02:03:54;19.2;76.5
78541;SHT31;67835;51.968;5.646;2023-07-31T02:06:24;19.2;76.7
78541;SHT31;67835;51.968;5.646;2023-07-31T02:08:52;19.2;76.9
78541;SHT31;67835;51.968;5.646;2023-07-31T02:11:21;19.2;76.8
78541;SHT31;67835;51.968;5.646;2023-07-31T02:13:50;19.2;77.0
78541;SHT31;67835;51.968;5.646;2023-07-31T02:16:19;19.1;77.1
78541;SHT31;67835;51.968;5.646;2023-07-31T02:18:47;19.1;77.3
78541;SHT31;67835;51.968;5.646;2023-07-31T02:21:16;19.1;77.4
78541;SHT31;67835;51.968;5.646;2023-07-31T02:23:44;19.0;77.5
78541;SHT31;67835;51.968;5.646;2023-07-31T02:26:13;19.0;77.8
78541;SHT31;67835;51.968;5.646;2023-07-31T02:28:42;19.0;78.0
78541;SHT31;67835;51.968;5.646;2023-07-31T02:31:11;19.0;77.9
78541;SHT31;67835;51.968;5.646;2023-07-31T02:33:39;19.0;77.8
78541;SHT31;67835;51.968;5.646;2023-07-31T02:36:07;19.0;77.7
78541;SHT31;67835;51.968;5.646;2023-07-31T02:38:36;18.9;77.5
78541;SHT31;67835;51.968;5.646;2023-07-31T02:41:04;18.9;77.1
78541;SHT31;67835;51.968;5.646;2023-07-31T02:43:33;18.9;77.3
78541;SHT31;67835;51.968;5.646;2023-07-31T02:46:01;18.9;77.4
78541;SHT31;67835;51.968;5.646;2023-07-31T02:48:30;18.9;77.2
78541;SHT31;67835;51.968;5.646;2023-07-31T02:50:59;18.9;76.9
78541;SHT31;67835;51.968;5.646;2023-07-31T02:53:27;18.9;76.8
78541;SHT31;67835;51.968;5.646;2023-07-31T02:55:58;18.9;76.6
78541;SHT31;67835;51.968;5.646;2023-07-31T02:58:26;18.9;75.9
78541;SHT31;67835;51.968;5.646;2023-07-31T03:00:55;19.0;75.9
78541;SHT31;67835;51.968;5.646;2023-07-31T03:03:26;19.0;76.1
78541;SHT31;67835;51.968;5.646;2023-07-31T03:05:54;19.0;75.8
78541;SHT31;67835;51.968;5.646;2023-07-31T03:08:25;19.0;75.5
78541;SHT31;67835;51.968;5.646;2023-07-31T03:10:53;19.1;75.1
78541;SHT31;67835;51.968;5.646;2023-07-31T03:13:23;19.1;74.7
78541;SHT31;67835;51.968;5.646;2023-07-31T03:15:52;19.1;74.9
78541;SHT31;67835;51.968;5.646;2023-07-31T03:18:20;19.1;74.3
78541;SHT31;67835;51.968;5.646;2023-07-31T03:20:49;19.1;74.1
78541;SHT31;67835;51.968;5.646;2023-07-31T03:23:18;19.1;74.1
78541;SHT31;67835;51.968;5.646;2023-07-31T03:25:58;19.1;73.6
78541;SHT31;67835;51.968;5.646;2023-07-31T03:28:27;19.1;73.9
78541;SHT31;67835;51.968;5.646;2023-07-31T03:30:55;19.1;74.2
78541;SHT31;67835;51.968;5.646;2023-07-31T03:33:24;19.2;73.5
78541;SHT31;67835;51.968;5.646;2023-07-31T03:35:53;19.2;73.2
78541;SHT31;67835;51.968;5.646;2023-07-31T03:38:22;19.2;73.3
78541;SHT31;67835;51.968;5.646;2023-07-31T03:40:52;19.2;73.0
78541;SHT31;67835;51.968;5.646;2023-07-31T03:43:22;19.2;72.6
78541;SHT31;67835;51.968;5.646;2023-07-31T03:45:51;19.1;72.5
78541;SHT31;67835;51.968;5.646;2023-07-31T03:48:21;19.1;72.7
78541;SHT31;67835;51.968;5.646;2023-07-31T03:50:50;19.1;72.6
78541;SHT31;67835;51.968;5.646;2023-07-31T03:53:20;19.1;72.4
78541;SHT31;67835;51.968;5.646;2023-07-31T03:55:48;19.1;72.3
78541;SHT31;67835;51.968;5.646;2023-07-31T03:58:17;19.1;72.4
78541;SHT31;67835;51.968;5.646;2023-07-31T04:00:47;19.1;72.1
78541;SHT31;67835;51.968;5.646;2023-07-31T04:03:15;19.1;72.1
78541;SHT31;67835;51.968;5.646;2023-07-31T04:05:45;19.1;72.4
78541;SHT31;67835;51.968;5.646;2023-07-31T04:08:13;19.1;72.0
78541;SHT31;67835;51.968;5.646;2023-07-31T04:10:42;19.1;71.9
78541;SHT31;67835;51.968;5.646;2023-07-31T04:13:10;19.1;72.1
78541;SHT31;67835;51.968;5.646;2023-07-31T04:15:39;19.1;72.0
78541;SHT31;67835;51.968;5.646;2023-07-31T04:18:09;19.1;71.5
78541;SHT31;67835;51.968;5.646;2023-07-31T04:20:39;19.1;71.5
78541;SHT31;67835;51.968;5.646;2023-07-31T04:23:07;19.1;71.5
78541;SHT31;67835;51.968;5.646;2023-07-31T04:25:36;19.1;71.1
78541;SHT31;67835;51.968;5.646;2023-07-31T04:28:04;19.1;71.0
78541;SHT31;67835;51.968;5.646;2023-07-31T04:30:33;19.1;70.8
78541;SHT31;67835;51.968;5.646;2023-07-31T04:33:02;19.1;71.2
78541;SHT31;67835;51.968;5.646;2023-07-31T04:35:31;19.1;71.1
78541;SHT31;67835;51.968;5.646;2023-07-31T04:38:01;19.1;71.2
78541;SHT31;67835;51.968;5.646;2023-07-31T04:40:29;19.1;70.9
78541;SHT31;67835;51.968;5.646;2023-07-31T04:42:58;19.1;70.8
78541;SHT31;67835;51.968;5.646;2023-07-31T04:45:27;19.1;71.2
78541;SHT31;67835;51.968;5.646;2023-07-31T04:47:56;19.1;71.2
78541;SHT31;67835;51.968;5.646;2023-07-31T04:50:25;19.2;71.0
78541;SHT31;67835;51.968;5.646;2023-07-31T04:52:53;19.2;70.7
78541;SHT31;67835;51.968;5.646;2023-07-31T04:55:22;19.2;70.8
78541;SHT31;67835;51.968;5.646;2023-07-31T04:57:53;19.2;70.6
78541;SHT31;67835;51.968;5.646;2023-07-31T05:00:21;19.2;71.1
78541;SHT31;67835;51.968;5.646;2023-07-31T05:02:51;19.2;71.1
78541;SHT31;67835;51.968;5.646;2023-07-31T05:05:20;19.2;71.2
78541;SHT31;67835;51.968;5.646;2023-07-31T05:07:49;19.2;71.6
78541;SHT31;67835;51.968;5.646;2023-07-31T05:10:17;19.2;71.5
78541;SHT31;67835;51.968;5.646;2023-07-31T05:12:46;19.2;71.5
78541;SHT31;67835;51.968;5.646;2023-07-31T05:15:15;19.2;71.5
78541;SHT31;67835;51.968;5.646;2023-07-31T05:17:43;19.2;72.1
78541;SHT31;67835;51.968;5.646;2023-07-31T05:20:12;19.2;72.5
78541;SHT31;67835;51.968;5.646;2023-07-31T05:22:41;19.1;72.9
78541;SHT31;67835;51.968;5.646;2023-07-31T05:25:11;19.1;73.1
78541;SHT31;67835;51.968;5.646;2023-07-31T05:27:39;19.1;73.7
78541;SHT31;67835;51.968;5.646;2023-07-31T05:30:09;19.1;74.0
78541;SHT31;67835;51.968;5.646;2023-07-31T05:32:38;19.0;74.3
78541;SHT31;67835;51.968;5.646;2023-07-31T05:35:08;19.0;74.4
78541;SHT31;67835;51.968;5.646;2023-07-31T05:37:37;19.0;75.0
78541;SHT31;67835;51.968;5.646;2023-07-31T05:40:07;18.9;75.5
78541;SHT31;67835;51.968;5.646;2023-07-31T05:42:35;18.9;75.7
78541;SHT31;67835;51.968;5.646;2023-07-31T05:45:06;18.8;75.7
78541;SHT31;67835;51.968;5.646;2023-07-31T05:47:35;18.8;76.1
78541;SHT31;67835;51.968;5.646;2023-07-31T05:50:05;18.7;76.7
78541;SHT31;67835;51.968;5.646;2023-07-31T05:52:34;18.6;76.9
78541;SHT31;67835;51.968;5.646;2023-07-31T05:55:03;18.6;77.3
78541;SHT31;67835;51.968;5.646;2023-07-31T05:57:32;18.5;77.6
78541;SHT31;67835;51.968;5.646;2023-07-31T06:00:00;18.5;78.2
78541;SHT31;67835;51.968;5.646;2023-07-31T06:02:29;18.4;78.5
78541;SHT31;67835;51.968;5.646;2023-07-31T06:04:59;18.4;78.7
78541;SHT31;67835;51.968;5.646;2023-07-31T06:07:29;18.4;79.0
78541;SHT31;67835;51.968;5.646;2023-07-31T06:09:58;18.3;79.3
78541;SHT31;67835;51.968;5.646;2023-07-31T06:12:31;18.3;79.5
78541;SHT31;67835;51.968;5.646;2023-07-31T06:15:01;18.3;79.8
78541;SHT31;67835;51.968;5.646;2023-07-31T06:17:30;18.3;80.0
78541;SHT31;67835;51.968;5.646;2023-07-31T06:19:58;18.3;80.4
78541;SHT31;67835;51.968;5.646;2023-07-31T06:22:26;18.3;80.6
78541;SHT31;67835;51.968;5.646;2023-07-31T06:24:55;18.3;80.5
78541;SHT31;67835;51.968;5.646;2023-07-31T06:27:24;18.3;80.7
78541;SHT31;67835;51.968;5.646;2023-07-31T06:29:53;18.4;80.9
78541;SHT31;67835;51.968;5.646;2023-07-31T06:32:21;18.4;81.0
78541;SHT31;67835;51.968;5.646;2023-07-31T06:34:50;18.4;81.4
78541;SHT31;67835;51.968;5.646;2023-07-31T06:37:20;18.4;81.2
78541;SHT31;67835;51.968;5.646;2023-07-31T06:39:50;18.4;80.9
78541;SHT31;67835;51.968;5.646;2023-07-31T06:42:19;18.5;80.7
78541;SHT31;67835;51.968;5.646;2023-07-31T06:44:48;18.5;80.9
78541;SHT31;67835;51.968;5.646;2023-07-31T06:47:17;18.5;80.8
78541;SHT31;67835;51.968;5.646;2023-07-31T06:49:46;18.5;80.7
78541;SHT31;67835;51.968;5.646;2023-07-31T06:52:15;18.6;80.4
78541;SHT31;67835;51.968;5.646;2023-07-31T06:54:44;18.6;80.5
78541;SHT31;67835;51.968;5.646;2023-07-31T06:57:12;18.6;80.5
78541;SHT31;67835;51.968;5.646;2023-07-31T06:59:41;18.6;80.4
78541;SHT31;67835;51.968;5.646;2023-07-31T07:02:14;18.6;80.7
78541;SHT31;67835;51.968;5.646;2023-07-31T07:04:42;18.6;81.1
78541;SHT31;67835;51.968;5.646;2023-07-31T07:07:12;18.7;81.3
78541;SHT31;67835;51.968;5.646;2023-07-31T07:09:40;18.7;81.5
78541;SHT31;67835;51.968;5.646;2023-07-31T07:12:10;18.7;81.6
78541;SHT31;67835;51.968;5.646;2023-07-31T07:14:40;18.7;81.6
78541;SHT31;67835;51.968;5.646;2023-07-31T07:17:09;18.8;81.1
78541;SHT31;67835;51.968;5.646;2023-07-31T07:19:40;18.8;81.2
78541;SHT31;67835;51.968;5.646;2023-07-31T07:22:11;18.8;81.1
78541;SHT31;67835;51.968;5.646;2023-07-31T07:24:43;18.8;80.8
78541;SHT31;67835;51.968;5.646;2023-07-31T07:27:14;18.8;80.9
78541;SHT31;67835;51.968;5.646;2023-07-31T07:29:43;18.8;80.5
78541;SHT31;67835;51.968;5.646;2023-07-31T07:32:11;18.8;80.7
78541;SHT31;67835;51.968;5.646;2023-07-31T07:34:40;18.9;80.9
78541;SHT31;67835;51.968;5.646;2023-07-31T07:37:09;18.9;80.7
78541;SHT31;67835;51.968;5.646;2023-07-31T07:39:37;18.9;80.5
78541;SHT31;67835;51.968;5.646;2023-07-31T07:42:06;18.9;80.5
78541;SHT31;67835;51.968;5.646;2023-07-31T07:44:35;18.9;80.1
78541;SHT31;67835;51.968;5.646;2023-07-31T07:47:04;19.0;80.1
78541;SHT31;67835;51.968;5.646;2023-07-31T07:49:35;19.0;80.4
78541;SHT31;67835;51.968;5.646;2023-07-31T07:52:05;19.0;80.4
78541;SHT31;67835;51.968;5.646;2023-07-31T07:54:34;19.0;80.4
78541;SHT31;67835;51.968;5.646;2023-07-31T07:57:03;19.0;80.2
78541;SHT31;67835;51.968;5.646;2023-07-31T07:59:32;19.0;80.1
78541;SHT31;67835;51.968;5.646;2023-07-31T08:02:00;19.0;80.6
78541;SHT31;67835;51.968;5.646;2023-07-31T08:04:30;19.1;80.2
78541;SHT31;67835;51.968;5.646;2023-07-31T08:06:58;19.1;80.4
78541;SHT31;67835;51.968;5.646;2023-07-31T08:09:27;19.1;80.1
78541;SHT31;67835;51.968;5.646;2023-07-31T08:11:57;19.1;80.3
78541;SHT31;67835;51.968;5.646;2023-07-31T08:14:29;19.1;80.6
78541;SHT31;67835;51.968;5.646;2023-07-31T08:16:58;19.2;80.4
78541;SHT31;67835;51.968;5.646;2023-07-31T08:19:27;19.2;80.2
78541;SHT31;67835;51.968;5.646;2023-07-31T08:21:57;19.2;80.5
78541;SHT31;67835;51.968;5.646;2023-07-31T08:24:26;19.3;80.5
78541;SHT31;67835;51.968;5.646;2023-07-31T08:26:55;19.3;80.5
78541;SHT31;67835;51.968;5.646;2023-07-31T08:29:25;19.3;80.2
78541;SHT31;67835;51.968;5.646;2023-07-31T08:31:54;19.3;80.5
78541;SHT31;67835;51.968;5.646;2023-07-31T08:34:25;19.3;80.7
78541;SHT31;67835;51.968;5.646;2023-07-31T08:36:54;19.4;80.8
78541;SHT31;67835;51.968;5.646;2023-07-31T08:39:25;19.4;81.1
78541;SHT31;67835;51.968;5.646;2023-07-31T08:41:59;19.4;80.8
78541;SHT31;67835;51.968;5.646;2023-07-31T08:44:29;19.4;81.1
78541;SHT31;67835;51.968;5.646;2023-07-31T08:47:01;19.5;80.7
78541;SHT31;67835;51.968;5.646;2023-07-31T08:49:31;19.5;81.1
78541;SHT31;67835;51.968;5.646;2023-07-31T08:52:01;19.5;80.7
78541;SHT31;67835;51.968;5.646;2023-07-31T08:54:31;19.5;80.5
78541;SHT31;67835;51.968;5.646;2023-07-31T08:57:00;19.5;80.7
78541;SHT31;67835;51.968;5.646;2023-07-31T08:59:31;19.5;80.7
78541;SHT31;67835;51.968;5.646;2023-07-31T09:02:05;19.6;80.5
78541;SHT31;67835;51.968;5.646;2023-07-31T09:04:36;19.6;80.4
78541;SHT31;67835;51.968;5.646;2023-07-31T09:07:06;19.6;80.2
78541;SHT31;67835;51.968;5.646;2023-07-31T09:09:36;19.6;80.1
78541;SHT31;67835;51.968;5.646;2023-07-31T09:12:06;19.6;80.8
78541;SHT31;67835;51.968;5.646;2023-07-31T09:14:37;19.6;80.6
78541;SHT31;67835;51.968;5.646;2023-07-31T09:17:08;19.6;80.7
78541;SHT31;67835;51.968;5.646;2023-07-31T09:19:39;19.6;80.1
78541;SHT31;67835;51.968;5.646;2023-07-31T09:22:11;19.6;80.1
78541;SHT31;67835;51.968;5.646;2023-07-31T09:24:39;19.6;79.8
78541;SHT31;67835;51.968;5.646;2023-07-31T09:27:08;19.6;80.1
78541;SHT31;67835;51.968;5.646;2023-07-31T09:29:37;19.6;79.7
78541;SHT31;67835;51.968;5.646;2023-07-31T09:32:17;19.6;79.7
78541;SHT31;67835;51.968;5.646;2023-07-31T09:34:47;19.6;79.9
78541;SHT31;67835;51.968;5.646;2023-07-31T09:37:16;19.6;79.6
78541;SHT31;67835;51.968;5.646;2023-07-31T09:39:48;19.6;79.8
78541;SHT31;67835;51.968;5.646;2023-07-31T09:42:26;19.6;79.8
78541;SHT31;67835;51.968;5.646;2023-07-31T09:45:11;19.7;80.3
78541;SHT31;67835;51.968;5.646;2023-07-31T09:47:48;19.7;79.4
78541;SHT31;67835;51.968;5.646;2023-07-31T09:50:17;19.8;78.9
78541;SHT31;67835;51.968;5.646;2023-07-31T09:52:49;19.8;79.1
78541;SHT31;67835;51.968;5.646;2023-07-31T09:55:19;19.9;78.5
78541;SHT31;67835;51.968;5.646;2023-07-31T09:57:49;20.0;78.3
78541;SHT31;67835;51.968;5.646;2023-07-31T10:00:19;20.0;78.0
78541;SHT31;67835;51.968;5.646;2023-07-31T10:02:51;20.0;77.5
78541;SHT31;67835;51.968;5.646;2023-07-31T10:05:25;20.1;77.4
78541;SHT31;67835;51.968;5.646;2023-07-31T10:07:59;20.2;77.5
78541;SHT31;67835;51.968;5.646;2023-07-31T10:10:28;20.2;76.7
78541;SHT31;67835;51.968;5.646;2023-07-31T10:12:59;20.3;76.4
78541;SHT31;67835;51.968;5.646;2023-07-31T10:15:30;20.3;76.5
78541;SHT31;67835;51.968;5.646;2023-07-31T10:17:59;20.3;76.1
78541;SHT31;67835;51.968;5.646;2023-07-31T10:20:29;20.4;76.3
78541;SHT31;67835;51.968;5.646;2023-07-31T10:23:00;20.4;75.9
78541;SHT31;67835;51.968;5.646;2023-07-31T10:25:30;20.5;75.1
78541;SHT31;67835;51.968;5.646;2023-07-31T10:28:00;20.5;75.5
78541;SHT31;67835;51.968;5.646;2023-07-31T10:30:30;20.6;75.6
78541;SHT31;67835;51.968;5.646;2023-07-31T10:33:01;20.6;75.9
78541;SHT31;67835;51.968;5.646;2023-07-31T10:35:32;20.6;76.1
78541;SHT31;67835;51.968;5.646;2023-07-31T10:38:11;20.6;75.9
78541;SHT31;67835;51.968;5.646;2023-07-31T10:40:40;20.6;76.4
78541;SHT31;67835;51.968;5.646;2023-07-31T10:43:25;20.6;75.8
78541;SHT31;67835;51.968;5.646;2023-07-31T10:45:54;20.7;76.1
78541;SHT31;67835;51.968;5.646;2023-07-31T10:48:24;20.7;75.6
78541;SHT31;67835;51.968;5.646;2023-07-31T10:50:55;20.7;76.2
78541;SHT31;67835;51.968;5.646;2023-07-31T10:53:26;20.7;76.2
78541;SHT31;67835;51.968;5.646;2023-07-31T10:55:58;20.7;76.7
78541;SHT31;67835;51.968;5.646;2023-07-31T10:58:27;20.7;77.0
78541;SHT31;67835;51.968;5.646;2023-07-31T11:01:00;20.7;77.1
78541;SHT31;67835;51.968;5.646;2023-07-31T11:03:43;20.7;77.2
78541;SHT31;67835;51.968;5.646;2023-07-31T11:06:14;20.7;77.2
78541;SHT31;67835;51.968;5.646;2023-07-31T11:08:45;20.7;77.2
78541;SHT31;67835;51.968;5.646;2023-07-31T11:11:16;20.8;77.7
78541;SHT31;67835;51.968;5.646;2023-07-31T11:13:47;20.8;77.5
78541;SHT31;67835;51.968;5.646;2023-07-31T11:16:21;20.8;78.2
78541;SHT31;67835;51.968;5.646;2023-07-31T11:18:51;20.8;77.9
78541;SHT31;67835;51.968;5.646;2023-07-31T11:21:22;20.8;78.6
78541;SHT31;67835;51.968;5.646;2023-07-31T11:23:52;20.7;77.8
78541;SHT31;67835;51.968;5.646;2023-07-31T11:26:23;20.7;78.2
78541;SHT31;67835;51.968;5.646;2023-07-31T11:28:52;20.7;77.6
78541;SHT31;67835;51.968;5.646;2023-07-31T11:31:20;20.7;77.8
78541;SHT31;67835;51.968;5.646;2023-07-31T11:33:50;20.7;77.8
78541;SHT31;67835;51.968;5.646;2023-07-31T11:36:20;20.7;77.8
78541;SHT31;67835;51.968;5.646;2023-07-31T11:38:48;20.7;78.7
78541;SHT31;67835;51.968;5.646;2023-07-31T11:41:17;20.8;78.4
78541;SHT31;67835;51.968;5.646;2023-07-31T11:43:46;20.8;77.7
78541;SHT31;67835;51.968;5.646;2023-07-31T11:46:15;20.8;77.7
78541;SHT31;67835;51.968;5.646;2023-07-31T11:48:46;20.9;78.0
78541;SHT31;67835;51.968;5.646;2023-07-31T11:51:15;20.9;77.5
78541;SHT31;67835;51.968;5.646;2023-07-31T11:53:48;20.9;77.0
78541;SHT31;67835;51.968;5.646;2023-07-31T11:56:20;21.0;76.1
78541;SHT31;67835;51.968;5.646;2023-07-31T11:58:52;21.0;75.5
78541;SHT31;67835;51.968;5.646;2023-07-31T12:01:23;21.1;75.5
78541;SHT31;67835;51.968;5.646;2023-07-31T12:03:55;21.1;74.3
78541;SHT31;67835;51.968;5.646;2023-07-31T12:06:35;21.2;73.7
78541;SHT31;67835;51.968;5.646;2023-07-31T12:09:05;21.2;74.9
78541;SHT31;67835;51.968;5.646;2023-07-31T12:11:44;21.3;74.5
78541;SHT31;67835;51.968;5.646;2023-07-31T12:14:23;21.3;74.5
78541;SHT31;67835;51.968;5.646;2023-07-31T12:16:56;21.4;74.3
78541;SHT31;67835;51.968;5.646;2023-07-31T12:19:26;21.4;73.8
78541;SHT31;67835;51.968;5.646;2023-07-31T12:21:57;21.4;74.5
78541;SHT31;67835;51.968;5.646;2023-07-31T12:24:28;21.4;74.2
78541;SHT31;67835;51.968;5.646;2023-07-31T12:26:58;21.4;74.1
78541;SHT31;67835;51.968;5.646;2023-07-31T12:29:35;21.4;73.7
78541;SHT31;67835;51.968;5.646;2023-07-31T12:32:04;21.4;73.8
78541;SHT31;67835;51.968;5.646;2023-07-31T12:34:43;21.4;74.2
78541;SHT31;67835;51.968;5.646;2023-07-31T12:37:12;21.4;74.5
78541;SHT31;67835;51.968;5.646;2023-07-31T12:39:40;21.4;74.7
78541;SHT31;67835;51.968;5.646;2023-07-31T12:42:09;21.4;75.2
78541;SHT31;67835;51.968;5.646;2023-07-31T12:44:38;21.4;76.0
78541;SHT31;67835;51.968;5.646;2023-07-31T12:47:07;21.4;75.4
78541;SHT31;67835;51.968;5.646;2023-07-31T12:49:37;21.4;75.1
78541;SHT31;67835;51.968;5.646;2023-07-31T12:52:09;21.4;75.5
78541;SHT31;67835;51.968;5.646;2023-07-31T12:54:39;21.5;75.5
78541;SHT31;67835;51.968;5.646;2023-07-31T12:57:09;21.5;75.3
78541;SHT31;67835;51.968;5.646;2023-07-31T12:59:38;21.6;75.0
78541;SHT31;67835;51.968;5.646;2023-07-31T13:02:09;21.6;74.5
78541;SHT31;67835;51.968;5.646;2023-07-31T13:04:37;21.7;74.1
78541;SHT31;67835;51.968;5.646;2023-07-31T13:07:06;21.8;73.2
78541;SHT31;67835;51.968;5.646;2023-07-31T13:09:35;21.8;72.8
78541;SHT31;67835;51.968;5.646;2023-07-31T13:12:04;21.8;72.5
78541;SHT31;67835;51.968;5.646;2023-07-31T13:14:32;21.8;72.5
78541;SHT31;67835;51.968;5.646;2023-07-31T13:17:01;21.9;72.9
78541;SHT31;67835;51.968;5.646;2023-07-31T13:19:29;21.9;71.9
78541;SHT31;67835;51.968;5.646;2023-07-31T13:21:58;21.9;71.8
78541;SHT31;67835;51.968;5.646;2023-07-31T13:24:26;22.0;71.8
78541;SHT31;67835;51.968;5.646;2023-07-31T13:26:56;22.0;72.4
78541;SHT31;67835;51.968;5.646;2023-07-31T13:29:28;22.0;71.2
78541;SHT31;67835;51.968;5.646;2023-07-31T13:31:56;22.0;71.1
78541;SHT31;67835;51.968;5.646;2023-07-31T13:34:25;22.0;72.6
78541;SHT31;67835;51.968;5.646;2023-07-31T13:36:54;22.0;72.2
78541;SHT31;67835;51.968;5.646;2023-07-31T13:39:23;22.0;72.6
78541;SHT31;67835;51.968;5.646;2023-07-31T13:41:52;22.0;72.8
78541;SHT31;67835;51.968;5.646;2023-07-31T13:44:21;21.9;73.1
78541;SHT31;67835;51.968;5.646;2023-07-31T13:46:49;21.9;73.4
78541;SHT31;67835;51.968;5.646;2023-07-31T13:49:20;21.8;74.1
78541;SHT31;67835;51.968;5.646;2023-07-31T13:51:49;21.7;74.4
78541;SHT31;67835;51.968;5.646;2023-07-31T13:54:17;21.7;74.7
78541;SHT31;67835;51.968;5.646;2023-07-31T13:56:46;21.6;74.5
78541;SHT31;67835;51.968;5.646;2023-07-31T13:59:16;21.5;74.9
78541;SHT31;67835;51.968;5.646;2023-07-31T14:01:45;21.5;75.2
78541;SHT31;67835;51.968;5.646;2023-07-31T14:04:14;21.5;75.7
78541;SHT31;67835;51.968;5.646;2023-07-31T14:06:44;21.4;75.5
78541;SHT31;67835;51.968;5.646;2023-07-31T14:09:14;21.4;75.4
78541;SHT31;67835;51.968;5.646;2023-07-31T14:11:43;21.4;75.8
78541;SHT31;67835;51.968;5.646;2023-07-31T14:14:12;21.4;75.9
78541;SHT31;67835;51.968;5.646;2023-07-31T14:16:40;21.4;76.0
78541;SHT31;67835;51.968;5.646;2023-07-31T14:19:09;21.4;76.0
78541;SHT31;67835;51.968;5.646;2023-07-31T14:21:38;21.4;76.0
78541;SHT31;67835;51.968;5.646;2023-07-31T14:24:06;21.4;75.6
78541;SHT31;67835;51.968;5.646;2023-07-31T14:26:35;21.4;75.8
78541;SHT31;67835;51.968;5.646;2023-07-31T14:29:03;21.3;75.7
78541;SHT31;67835;51.968;5.646;2023-07-31T14:31:32;21.3;75.2
78541;SHT31;67835;51.968;5.646;2023-07-31T14:34:00;21.3;76.0
78541;SHT31;67835;51.968;5.646;2023-07-31T14:36:29;21.3;75.9
78541;SHT31;67835;51.968;5.646;2023-07-31T14:38:57;21.3;76.2
78541;SHT31;67835;51.968;5.646;2023-07-31T14:41:26;21.2;76.1
78541;SHT31;67835;51.968;5.646;2023-07-31T14:43:54;21.2;76.0
78541;SHT31;67835;51.968;5.646;2023-07-31T14:46:23;21.2;75.8
78541;SHT31;67835;51.968;5.646;2023-07-31T14:48:51;21.2;75.8
78541;SHT31;67835;51.968;5.646;2023-07-31T14:51:21;21.2;75.9
78541;SHT31;67835;51.968;5.646;2023-07-31T14:53:49;21.2;76.1
78541;SHT31;67835;51.968;5.646;2023-07-31T14:56:18;21.2;75.7
78541;SHT31;67835;51.968;5.646;2023-07-31T14:58:46;21.2;75.8
78541;SHT31;67835;51.968;5.646;2023-07-31T15:01:14;21.2;75.8
78541;SHT31;67835;51.968;5.646;2023-07-31T15:03:43;21.2;75.7
78541;SHT31;67835;51.968;5.646;2023-07-31T15:06:12;21.2;75.9
78541;SHT31;67835;51.968;5.646;2023-07-31T15:08:41;21.2;76.0
78541;SHT31;67835;51.968;5.646;2023-07-31T15:11:10;21.2;76.0
78541;SHT31;67835;51.968;5.646;2023-07-31T15:13:39;21.2;75.9
78541;SHT31;67835;51.968;5.646;2023-07-31T15:16:08;21.2;75.7
78541;SHT31;67835;51.968;5.646;2023-07-31T15:18:36;21.3;75.2
78541;SHT31;67835;51.968;5.646;2023-07-31T15:21:05;21.3;75.3
78541;SHT31;67835;51.968;5.646;2023-07-31T15:23:35;21.3;75.0
78541;SHT31;67835;51.968;5.646;2023-07-31T15:26:05;21.3;75.0
78541;SHT31;67835;51.968;5.646;2023-07-31T15:28:33;21.3;75.2
78541;SHT31;67835;51.968;5.646;2023-07-31T15:31:04;21.3;75.4
78541;SHT31;67835;51.968;5.646;2023-07-31T15:33:33;21.3;75.6
78541;SHT31;67835;51.968;5.646;2023-07-31T15:36:01;21.3;76.0
78541;SHT31;67835;51.968;5.646;2023-07-31T15:38:30;21.3;76.0
78541;SHT31;67835;51.968;5.646;2023-07-31T15:41:00;21.3;75.8
78541;SHT31;67835;51.968;5.646;2023-07-31T15:43:28;21.3;75.9
78541;SHT31;67835;51.968;5.646;2023-07-31T15:45:58;21.2;76.4
78541;SHT31;67835;51.968;5.646;2023-07-31T15:48:29;21.2;76.4
78541;SHT31;67835;51.968;5.646;2023-07-31T15:50:58;21.2;76.4
78541;SHT31;67835;51.968;5.646;2023-07-31T15:53:27;21.1;76.5
78541;SHT31;67835;51.968;5.646;2023-07-31T15:55:56;21.1;76.2
78541;SHT31;67835;51.968;5.646;2023-07-31T15:58:25;21.0;76.6
78541;SHT31;67835;51.968;5.646;2023-07-31T16:00:56;21.0;76.9
78541;SHT31;67835;51.968;5.646;2023-07-31T16:03:25;21.0;77.4
78541;SHT31;67835;51.968;5.646;2023-07-31T16:05:53;21.0;77.3
78541;SHT31;67835;51.968;5.646;2023-07-31T16:08:22;20.9;77.3
78541;SHT31;67835;51.968;5.646;2023-07-31T16:10:52;20.9;77.5
78541;SHT31;67835;51.968;5.646;2023-07-31T16:13:22;20.8;77.6
78541;SHT31;67835;51.968;5.646;2023-07-31T16:15:50;20.8;77.8
78541;SHT31;67835;51.968;5.646;2023-07-31T16:18:19;20.7;77.6